Time;durP1;ratioP1;P1;durP2;ratioP2;P2;SDS_P1;SDS_P2;PMS_P1;PMS_P2;Temp;Humidity;BMP_temperature;BMP_pressure;BME280_temperature;BME280_humidity;BME280_pressure;Samples;Min_cycle;Max_cycle;Signal;HPM_P1;HPM_P2
2023/10/23 00:00:12;;;;;;;;;;;;;;;12.35;88.12;100828.16;4193113;28;20011;-70
2023/10/23 00:02:14;;;;;;;;;;;;;;;12.34;88.12;100828.34;4191777;28;20015;-70
2023/10/23 00:04:17;;;;;;;;;;;;;;;12.33;88.04;100837.50;4194210;28;20019;-70
2023/10/23 00:06:19;;;;;;;;;;;;;;;12.31;88.44;100826.03;4192942;28;20019;-70
2023/10/23 00:08:21;;;;;;;;;;;;;;;12.32;88.45;100833.09;4194544;28;19979;-70
2023/10/23 00:10:23;;;;;;;;;;;;;;;12.29;88.35;100826.19;4194931;28;20007;-70
2023/10/23 00:12:25;;;;;;;;;;;;;;;12.25;88.30;100824.88;4194581;28;20011;-69
2023/10/23 00:14:27;;;;;;;;;;;;;;;12.25;88.17;100833.84;4194753;28;20454;-69
2023/10/23 00:16:29;;;;;;;;;;;;;;;12.21;87.96;100829.84;4194274;28;20050;-69
2023/10/23 00:18:31;;;;;;;;;;;;;;;12.19;88.07;100831.88;4195486;28;20036;-69
2023/10/23 00:20:33;;;;;;;;;;;;;;;12.17;88.37;100831.22;4194150;28;20023;-70
2023/10/23 00:22:35;;;;;;;;;;;;;;;12.16;88.26;100837.69;4192557;28;20347;-69
2023/10/23 00:24:36;;;;;;;;;;;;;;;12.13;87.66;100834.47;4195108;28;20027;-69
2023/10/23 00:26:39;;;;;;;;;;;;;;;12.12;87.59;100835.53;4194940;28;19925;-69
2023/10/23 00:28:40;;;;;;;;;;;;;;;12.11;88.07;100836.53;4194350;28;20031;-70
2023/10/23 00:30:42;;;;;;;;;;;;;;;12.08;88.04;100833.19;4193036;28;19924;-69
2023/10/23 00:32:43;;;;;;;;;;;;;;;12.06;88.24;100840.63;4193834;28;20454;-70
2023/10/23 00:34:45;;;;;;;;;;;;;;;12.04;88.30;100837.28;4194377;28;20031;-69
2023/10/23 00:36:49;;;;;;;;;;;;;;;12.04;88.67;100844.56;4194046;28;20023;-69
2023/10/23 00:38:51;;;;;;;;;;;;;;;12.02;88.30;100839.34;4193458;28;20015;-70
2023/10/23 00:40:53;;;;;;;;;;;;;;;12.01;88.24;100842.22;4194040;28;20003;-70
2023/10/23 00:42:54;;;;;;;;;;;;;;;11.99;88.56;100852.38;4193683;28;20506;-70
2023/10/23 00:44:56;;;;;;;;;;;;;;;11.96;88.53;100845.50;4193593;28;19924;-70
2023/10/23 00:46:58;;;;;;;;;;;;;;;11.95;88.55;100848.38;4194378;28;20564;-70
2023/10/23 00:49:00;;;;;;;;;;;;;;;11.92;88.28;100846.00;4193671;28;19964;-70
2023/10/23 00:51:02;;;;;;;;;;;;;;;11.89;87.87;100841.78;4192691;28;20003;-68
2023/10/23 00:53:05;;;;;;;;;;;;;;;11.87;87.79;100843.84;4193301;28;20019;-70
2023/10/23 00:55:07;;;;;;;;;;;;;;;11.85;88.49;100843.19;4192883;28;20059;-69
2023/10/23 00:57:10;;;;;;;;;;;;;;;11.84;89.05;100842.34;4193534;28;20019;-69
2023/10/23 00:59:12;;;;;;;;;;;;;;;11.84;89.40;100845.03;4185103;28;20027;-70
2023/10/23 01:01:14;;;;;;;;;;;;;;;11.83;89.12;100837.09;4191626;28;20027;-69
2023/10/23 01:03:16;;;;;;;;;;;;;;;11.81;89.28;100837.28;4192993;28;20023;-70
2023/10/23 01:05:18;;;;;;;;;;;;;;;11.81;88.74;100841.88;4200616;28;20048;-70
2023/10/23 01:07:20;;;;;;;;;;;;;;;11.78;88.22;100843.06;4193784;28;20027;-69
2023/10/23 01:09:24;;;;;;;;;;;;;;;11.76;88.01;100842.41;4193364;28;20015;-70
2023/10/23 01:11:26;;;;;;;;;;;;;;;11.73;87.66;100845.47;4193694;28;20032;-70
2023/10/23 01:13:28;;;;;;;;;;;;;;;11.72;88.17;100847.34;4194142;28;20026;-69
2023/10/23 01:15:30;;;;;;;;;;;;;;;11.71;88.37;100845.66;4193547;28;20391;-70
2023/10/23 01:17:31;;;;;;;;;;;;;;;11.70;87.97;100848.56;4193150;28;20668;-70
2023/10/23 01:19:33;;;;;;;;;;;;;;;11.68;88.17;100851.44;4190943;28;19931;-70
2023/10/23 01:21:35;;;;;;;;;;;;;;;11.67;87.94;100848.91;4194020;28;20438;-70
2023/10/23 01:23:36;;;;;;;;;;;;;;;11.69;88.16;100845.03;4193196;28;20023;-70
2023/10/23 01:25:39;;;;;;;;;;;;;;;11.68;87.83;100850.59;4191214;28;20458;-70
2023/10/23 01:27:40;;;;;;;;;;;;;;;11.66;87.80;100848.09;4194051;28;20015;-69
2023/10/23 01:29:42;;;;;;;;;;;;;;;11.64;87.70;100855.53;4193408;28;19939;-70
2023/10/23 01:31:44;;;;;;;;;;;;;;;11.64;87.19;100850.09;4192222;28;20034;-70
2023/10/23 01:33:47;;;;;;;;;;;;;;;11.61;87.06;100858.59;4192653;28;20020;-70
2023/10/23 01:35:49;;;;;;;;;;;;;;;11.57;86.87;100853.72;4193453;28;20048;-70
2023/10/23 01:37:51;;;;;;;;;;;;;;;11.57;86.82;100851.00;4194174;28;20019;-70
2023/10/23 01:39:52;;;;;;;;;;;;;;;11.57;86.70;100859.13;4192175;28;20022;-69
2023/10/23 01:41:56;;;;;;;;;;;;;;;11.58;87.24;100855.41;4193793;28;20028;-69
2023/10/23 01:43:57;;;;;;;;;;;;;;;11.56;86.99;100862.88;4193410;28;20016;-70
2023/10/23 01:46:00;;;;;;;;;;;;;;;11.55;86.72;100864.72;4192893;28;19936;-70
2023/10/23 01:48:02;;;;;;;;;;;;;;;11.53;86.63;100856.78;4192669;28;20031;-70
2023/10/23 01:50:03;;;;;;;;;;;;;;;11.54;87.43;100865.75;4192870;28;19960;-69
2023/10/23 01:52:05;;;;;;;;;;;;;;;11.52;87.19;100857.81;4193848;28;20408;-70
2023/10/23 01:54:07;;;;;;;;;;;;;;;11.50;86.96;100857.16;4192985;28;20842;-70
2023/10/23 01:56:09;;;;;;;;;;;;;;;11.50;87.20;100857.16;4193275;28;20363;-70
2023/10/23 01:58:12;;;;;;;;;;;;;;;11.49;87.59;100863.59;4192497;28;20402;-70
2023/10/23 02:00:15;;;;;;;;;;;;;;;11.45;87.80;100861.44;4192691;28;20038;-70
2023/10/23 02:02:18;;;;;;;;;;;;;;;11.45;87.93;100866.84;4192214;28;20023;-69
2023/10/23 02:04:20;;;;;;;;;;;;;;;11.43;88.17;100867.00;4194162;28;20019;-70
2023/10/23 02:06:22;;;;;;;;;;;;;;;11.42;88.38;100868.03;4196872;28;20019;-70
2023/10/23 02:08:24;;;;;;;;;;;;;;;11.42;88.54;100872.59;4197218;28;20027;-70
2023/10/23 02:10:26;;;;;;;;;;;;;;;11.39;87.91;100868.38;4196726;28;20466;-69
2023/10/23 02:12:27;;;;;;;;;;;;;;;11.38;88.24;100868.56;4196108;28;20047;-69
2023/10/23 02:14:31;;;;;;;;;;;;;;;11.35;88.57;100873.31;4196500;28;20010;-70
2023/10/23 02:16:34;;;;;;;;;;;;;;;11.33;88.72;100872.66;4197147;28;20003;-70
2023/10/23 02:18:36;;;;;;;;;;;;;;;11.30;89.05;100878.44;4196996;28;20533;-70
2023/10/23 02:20:37;;;;;;;;;;;;;;;11.29;89.36;100882.13;4193873;28;20027;-70
2023/10/23 02:22:39;;;;;;;;;;;;;;;11.28;89.31;100880.44;4196486;28;19970;-68
2023/10/23 02:24:41;;;;;;;;;;;;;;;11.24;89.63;100871.03;4195947;28;20047;-70
2023/10/23 02:26:43;;;;;;;;;;;;;;;11.24;89.94;100880.97;4195382;28;20019;-70
2023/10/23 02:28:44;;;;;;;;;;;;;;;11.23;90.10;100876.63;4194737;28;20023;-70
2023/10/23 02:30:47;;;;;;;;;;;;;;;11.21;90.35;100875.94;4194749;28;19925;-69
2023/10/23 02:32:49;;;;;;;;;;;;;;;11.18;90.51;100867.16;4195680;28;20015;-69
2023/10/23 02:34:51;;;;;;;;;;;;;;;11.17;90.66;100867.34;4195893;28;20373;-69
2023/10/23 02:36:53;;;;;;;;;;;;;;;11.17;90.64;100881.72;4194667;28;20032;-70
2023/10/23 02:38:55;;;;;;;;;;;;;;;11.17;90.47;100880.84;4195321;28;20015;-70
2023/10/23 02:40:57;;;;;;;;;;;;;;;11.13;90.51;100885.78;4194505;28;20015;-69
2023/10/23 02:42:59;;;;;;;;;;;;;;;11.11;90.66;100885.13;4195297;28;20036;-70
2023/10/23 02:45:02;;;;;;;;;;;;;;;11.10;90.68;100896.94;4195376;28;20003;-69
2023/10/23 02:47:05;;;;;;;;;;;;;;;11.10;90.50;100898.81;4195287;28;20019;-70
2023/10/23 02:49:07;;;;;;;;;;;;;;;11.08;90.64;100898.13;4195455;28;20015;-70
2023/10/23 02:51:09;;;;;;;;;;;;;;;11.06;90.45;100897.47;4196400;28;20432;-69
2023/10/23 02:53:11;;;;;;;;;;;;;;;11.03;90.39;100904.06;4195575;28;20442;-70
2023/10/23 02:55:13;;;;;;;;;;;;;;;11.02;90.55;100905.09;4196833;28;20016;-70
2023/10/23 02:57:15;;;;;;;;;;;;;;;11.02;90.95;100899.69;4196536;28;20019;-70
2023/10/23 02:59:16;;;;;;;;;;;;;;;11.00;90.72;100897.19;4195234;28;20078;-69
2023/10/23 03:01:19;;;;;;;;;;;;;;;11.00;91.11;100905.28;4193856;28;19964;-69
2023/10/23 03:03:23;;;;;;;;;;;;;;;11.01;91.33;100903.41;4194095;28;20011;-70
2023/10/23 03:05:25;;;;;;;;;;;;;;;11.02;91.23;100905.09;4210888;28;20035;-70
2023/10/23 03:07:27;;;;;;;;;;;;;;;11.00;91.38;100905.28;4195999;28;20011;-70
2023/10/23 03:09:28;;;;;;;;;;;;;;;11.02;91.37;100909.66;4193505;28;20031;-70
2023/10/23 03:11:31;;;;;;;;;;;;;;;11.00;91.65;100907.97;4194228;28;20394;-69
2023/10/23 03:13:33;;;;;;;;;;;;;;;11.01;91.69;100914.22;4195529;28;19936;-69
2023/10/23 03:15:36;;;;;;;;;;;;;;;11.00;91.73;100915.22;4194344;28;20015;-70
2023/10/23 03:17:38;;;;;;;;;;;;;;;10.99;91.64;100918.97;4193997;28;20020;-68
2023/10/23 03:19:42;;;;;;;;;;;;;;;11.00;91.83;100909.81;4195540;28;20027;-70
2023/10/23 03:21:45;;;;;;;;;;;;;;;11.00;91.86;100912.53;4187093;28;20397;-69
2023/10/23 03:23:47;;;;;;;;;;;;;;;11.01;91.90;100916.94;4196129;28;20023;-68
2023/10/23 03:25:49;;;;;;;;;;;;;;;11.00;92.24;100920.63;4192699;28;20016;-69
2023/10/23 03:27:51;;;;;;;;;;;;;;;11.00;92.09;100932.31;4194997;28;20026;-70
2023/10/23 03:29:52;;;;;;;;;;;;;;;11.00;92.02;100928.75;4194932;28;20031;-70
2023/10/23 03:31:54;;;;;;;;;;;;;;;10.99;91.70;100925.22;4194076;28;19932;-70
2023/10/23 03:33:57;;;;;;;;;;;;;;;10.99;91.59;100929.78;4194492;28;20015;-69
2023/10/23 03:36:01;;;;;;;;;;;;;;;10.96;91.84;100932.84;4193204;28;20252;-70
2023/10/23 03:38:03;;;;;;;;;;;;;;;10.93;91.45;100925.06;4195569;28;20019;-70
2023/10/23 03:40:06;;;;;;;;;;;;;;;10.89;91.34;100921.03;4187006;28;20622;-70
2023/10/23 03:42:08;;;;;;;;;;;;;;;10.88;91.21;100922.03;4195194;28;20019;-69
2023/10/23 03:44:10;;;;;;;;;;;;;;;10.83;91.02;100922.59;4194730;28;20027;-70
2023/10/23 03:46:12;;;;;;;;;;;;;;;10.79;91.09;100916.66;4195048;28;20442;-70
2023/10/23 03:48:14;;;;;;;;;;;;;;;10.77;91.28;100918.72;4194790;28;20339;-70
2023/10/23 03:50:16;;;;;;;;;;;;;;;10.77;91.33;100923.28;4195165;28;20044;-70
2023/10/23 03:52:19;;;;;;;;;;;;;;;10.74;90.80;100919.06;4195162;28;20348;-70
2023/10/23 03:54:21;;;;;;;;;;;;;;;10.73;90.90;100917.34;4195497;28;20027;-70
2023/10/23 03:56:23;;;;;;;;;;;;;;;10.71;90.94;100923.97;4193760;28;20019;-70
2023/10/23 03:58:25;;;;;;;;;;;;;;;10.68;90.94;100925.16;4194509;28;20007;-70
2023/10/23 04:00:27;;;;;;;;;;;;;;;10.67;91.19;100923.44;4193179;28;20672;-70
2023/10/23 04:02:29;;;;;;;;;;;;;;;10.67;90.92;100925.31;4194293;28;20023;-70
2023/10/23 04:04:31;;;;;;;;;;;;;;;10.64;91.08;100926.50;4194741;28;20808;-70
2023/10/23 04:06:33;;;;;;;;;;;;;;;10.63;90.82;100927.53;4194797;28;20050;-70
2023/10/23 04:08:36;;;;;;;;;;;;;;;10.61;90.57;100932.25;4194769;28;20015;-70
2023/10/23 04:10:39;;;;;;;;;;;;;;;10.59;90.21;100939.69;4193713;28;20023;-70
2023/10/23 04:12:41;;;;;;;;;;;;;;;10.54;90.03;100944.78;4194201;28;20016;-70
2023/10/23 04:14:45;;;;;;;;;;;;;;;10.50;89.78;100948.81;4193031;28;20015;-70
2023/10/23 04:16:46;;;;;;;;;;;;;;;10.48;90.23;100949.00;4191427;28;20466;-70
2023/10/23 04:18:48;;;;;;;;;;;;;;;10.45;89.84;100954.72;4192355;28;19932;-70
2023/10/23 04:20:50;;;;;;;;;;;;;;;10.44;89.88;100955.75;4194077;28;20028;-70
2023/10/23 04:22:52;;;;;;;;;;;;;;;10.41;90.10;100951.53;4194608;28;20042;-70
2023/10/23 04:24:55;;;;;;;;;;;;;;;10.40;90.03;100957.09;4191143;28;20024;-70
2023/10/23 04:26:57;;;;;;;;;;;;;;;10.39;89.86;100952.72;4194117;28;20027;-70
2023/10/23 04:28:59;;;;;;;;;;;;;;;10.40;90.32;100955.25;4193744;28;20019;-70
2023/10/23 04:31:01;;;;;;;;;;;;;;;10.41;90.60;100956.09;4192053;28;20015;-70
2023/10/23 04:33:03;;;;;;;;;;;;;;;10.38;90.48;100956.44;4193844;28;19928;-70
2023/10/23 04:35:06;;;;;;;;;;;;;;;10.38;90.06;100967.25;4193447;28;20007;-70
2023/10/23 04:37:07;;;;;;;;;;;;;;;10.36;89.68;100967.41;4195730;28;20019;-70
2023/10/23 04:39:09;;;;;;;;;;;;;;;10.34;89.53;100960.47;4193410;28;20030;-68
2023/10/23 04:41:13;;;;;;;;;;;;;;;10.31;89.38;100961.63;4192786;28;20028;-70
2023/10/23 04:43:14;;;;;;;;;;;;;;;10.33;89.74;100965.06;4194276;28;20023;-71
2023/10/23 04:45:16;;;;;;;;;;;;;;;10.32;89.62;100962.50;4195406;28;19982;-70
2023/10/23 04:47:18;;;;;;;;;;;;;;;10.29;89.66;100969.91;4194198;28;20016;-69
2023/10/23 04:49:19;;;;;;;;;;;;;;;10.30;89.64;100965.34;4192394;28;20018;-70
2023/10/23 04:51:20;;;;;;;;;;;;;;;10.26;88.93;100974.78;4194171;28;20294;-70
2023/10/23 04:53:22;;;;;;;;;;;;;;;10.20;88.39;100965.53;4193726;28;19936;-70
2023/10/23 04:55:23;;;;;;;;;;;;;;;10.15;88.40;100970.56;4195149;28;19925;-69
2023/10/23 04:57:29;;;;;;;;;;;;;;;10.14;88.30;100971.63;4193880;28;21305;-70
2023/10/23 04:59:34;;;;;;;;;;;;;;;10.13;88.56;100975.31;4194194;28;20015;-70
2023/10/23 05:01:36;;;;;;;;;;;;;;;10.12;88.64;100979.00;4192127;28;20014;-70
2023/10/23 05:03:38;;;;;;;;;;;;;;;10.10;88.64;100979.19;4193092;28;20020;-70
2023/10/23 05:05:45;;;;;;;;;;;;;;;10.09;88.54;100977.50;4192808;28;20032;-70
2023/10/23 05:07:48;;;;;;;;;;;;;;;10.07;88.51;100982.22;4194621;28;20017;-71
2023/10/23 05:09:49;;;;;;;;;;;;;;;10.06;88.89;100971.59;4192986;28;20375;-71
2023/10/23 05:11:51;;;;;;;;;;;;;;;10.05;88.82;100978.84;4192817;28;20359;-71
2023/10/23 05:13:54;;;;;;;;;;;;;;;10.04;88.92;100979.84;4195024;28;19925;-71
2023/10/23 05:16:04;;;;;;;;;;;;;;;10.03;89.51;100975.47;4193619;28;20019;-70
2023/10/23 05:18:07;;;;;;;;;;;;;;;10.02;89.51;100981.03;4193773;28;20354;-71
2023/10/23 05:20:10;;;;;;;;;;;;;;;9.99;89.60;100987.59;4194529;28;20127;-71
2023/10/23 05:22:11;;;;;;;;;;;;;;;9.97;89.47;100986.06;4194616;28;20022;-72
2023/10/23 05:24:13;;;;;;;;;;;;;;;9.94;89.53;100987.28;4193473;28;20031;-71
2023/10/23 05:26:15;;;;;;;;;;;;;;;9.91;89.39;100987.59;4193088;28;20434;-71
2023/10/23 05:28:17;;;;;;;;;;;;;;;9.89;89.24;100995.00;4193697;28;20031;-71
2023/10/23 05:30:20;;;;;;;;;;;;;;;9.86;89.44;100998.06;4192708;28;20027;-72
2023/10/23 05:32:22;;;;;;;;;;;;;;;9.84;89.85;101002.75;4192073;28;20019;-71
2023/10/23 05:34:24;;;;;;;;;;;;;;;9.82;89.90;100994.00;4190708;28;19925;-72
2023/10/23 05:36:26;;;;;;;;;;;;;;;9.82;89.69;101004.78;4192786;28;20343;-72
2023/10/23 05:38:28;;;;;;;;;;;;;;;9.81;89.64;100997.69;4194013;28;20011;-71
2023/10/23 05:40:30;;;;;;;;;;;;;;;9.80;89.67;101001.41;4195238;28;20019;-72
2023/10/23 05:42:32;;;;;;;;;;;;;;;9.78;89.46;100993.50;4195712;28;20094;-72
2023/10/23 05:44:34;;;;;;;;;;;;;;;9.77;89.74;101001.75;4197394;28;20036;-72
2023/10/23 05:46:37;;;;;;;;;;;;;;;9.76;89.53;101008.16;4196167;28;20023;-71
2023/10/23 05:48:39;;;;;;;;;;;;;;;9.73;89.68;101012.88;4198137;28;20024;-71
2023/10/23 05:50:41;;;;;;;;;;;;;;;9.73;89.81;101010.16;4197591;28;20043;-70
2023/10/23 05:52:42;;;;;;;;;;;;;;;9.72;89.05;101011.16;4197570;28;20019;-70
2023/10/23 05:54:44;;;;;;;;;;;;;;;9.70;88.58;101015.91;4198474;28;19925;-71
2023/10/23 05:56:46;;;;;;;;;;;;;;;9.71;88.56;101014.03;4197042;28;19932;-72
2023/10/23 05:58:50;;;;;;;;;;;;;;;9.70;88.26;101012.34;4197691;28;19924;-70
2023/10/23 06:00:52;;;;;;;;;;;;;;;9.72;88.56;101018.44;4196264;28;20036;-71
2023/10/23 06:02:56;;;;;;;;;;;;;;;9.71;88.16;101017.56;4195315;28;20019;-72
2023/10/23 06:04:58;;;;;;;;;;;;;;;9.71;88.46;101011.34;4197681;28;20012;-71
2023/10/23 06:07:00;;;;;;;;;;;;;;;9.73;89.29;101015.56;4196278;28;20028;-71
2023/10/23 06:09:04;;;;;;;;;;;;;;;9.73;88.85;101012.88;4196742;28;20019;-71
2023/10/23 06:11:07;;;;;;;;;;;;;;;9.70;88.79;101006.94;4195620;28;20015;-71
2023/10/23 06:13:08;;;;;;;;;;;;;;;9.69;88.65;101011.50;4194586;28;20028;-71
2023/10/23 06:15:10;;;;;;;;;;;;;;;9.71;88.96;101020.25;4194643;28;20172;-70
2023/10/23 06:17:12;;;;;;;;;;;;;;;9.72;88.78;101015.72;4193977;28;20015;-71
2023/10/23 06:19:15;;;;;;;;;;;;;;;9.75;88.97;101023.50;4195948;28;19935;-70
2023/10/23 06:21:17;;;;;;;;;;;;;;;9.77;89.06;101034.13;4196125;28;20010;-71
2023/10/23 06:23:18;;;;;;;;;;;;;;;9.75;89.41;101034.28;4195750;28;20003;-71
2023/10/23 06:25:20;;;;;;;;;;;;;;;9.79;89.57;101043.72;4197198;28;19929;-69
2023/10/23 06:27:23;;;;;;;;;;;;;;;9.81;89.65;101051.66;4196642;28;20019;-71
2023/10/23 06:29:25;;;;;;;;;;;;;;;9.83;90.30;101050.47;4196324;28;20450;-71
2023/10/23 06:31:27;;;;;;;;;;;;;;;9.83;90.53;101047.78;4194974;28;20019;-72
2023/10/23 06:33:29;;;;;;;;;;;;;;;9.86;90.94;101062.81;4196453;28;20450;-71
2023/10/23 06:35:32;;;;;;;;;;;;;;;9.87;91.11;101057.25;4195878;28;19963;-71
2023/10/23 06:37:34;;;;;;;;;;;;;;;9.92;91.86;101056.72;4194312;28;20007;-67
2023/10/23 06:39:36;;;;;;;;;;;;;;;9.96;91.93;101059.97;4195160;28;20020;-67
2023/10/23 06:41:40;;;;;;;;;;;;;;;9.97;92.39;101061.63;4188859;28;19978;-71
2023/10/23 06:43:42;;;;;;;;;;;;;;;9.99;92.38;101059.63;4194905;28;20011;-71
2023/10/23 06:45:44;;;;;;;;;;;;;;;10.00;92.74;101064.00;4194942;28;20030;-71
2023/10/23 06:47:48;;;;;;;;;;;;;;;10.00;92.92;101066.69;4193201;28;20350;-71
2023/10/23 06:49:50;;;;;;;;;;;;;;;10.01;92.91;101060.31;4194595;28;20019;-71
2023/10/23 06:51:53;;;;;;;;;;;;;;;10.03;93.20;101063.66;4193566;28;20019;-71
2023/10/23 06:53:55;;;;;;;;;;;;;;;10.03;93.41;101059.13;4195363;28;20014;-70
2023/10/23 06:55:56;;;;;;;;;;;;;;;10.05;93.58;101065.19;4196234;28;19939;-71
2023/10/23 06:57:58;;;;;;;;;;;;;;;10.07;93.72;101070.44;4195331;28;20430;-71
2023/10/23 07:00:00;;;;;;;;;;;;;;;10.07;93.91;101068.56;4194853;28;20015;-70
2023/10/23 07:02:04;;;;;;;;;;;;;;;10.11;94.18;101069.09;4194961;28;20020;-71
2023/10/23 07:04:05;;;;;;;;;;;;;;;10.12;94.82;101067.25;4195659;28;20011;-71
2023/10/23 07:06:07;;;;;;;;;;;;;;;10.15;94.56;101072.31;4196462;28;20604;-71
2023/10/23 07:08:13;;;;;;;;;;;;;;;10.17;95.24;101063.03;4196224;28;20007;-71
2023/10/23 07:10:15;;;;;;;;;;;;;;;10.21;95.21;101071.66;4195443;28;20023;-71
2023/10/23 07:12:17;;;;;;;;;;;;;;;10.24;95.61;101066.75;4195709;28;20058;-71
2023/10/23 07:14:19;;;;;;;;;;;;;;;10.27;95.73;101074.50;4196356;28;20020;-71
2023/10/23 07:16:23;;;;;;;;;;;;;;;10.32;95.72;101075.88;4196805;28;19932;-71
2023/10/23 07:18:25;;;;;;;;;;;;;;;10.35;96.14;101068.31;4196309;28;20020;-71
2023/10/23 07:20:27;;;;;;;;;;;;;;;10.37;96.12;101063.56;4195431;28;20371;-70
2023/10/23 07:22:30;;;;;;;;;;;;;;;10.41;96.15;101067.66;4195931;28;20020;-71
2023/10/23 07:24:34;;;;;;;;;;;;;;;10.44;96.49;101072.72;4196077;28;20027;-71
2023/10/23 07:26:36;;;;;;;;;;;;;;;10.48;96.79;101069.69;4185571;28;20228;-71
2023/10/23 07:28:39;;;;;;;;;;;;;;;10.50;96.93;101063.09;4195152;28;20023;-71
2023/10/23 07:30:41;;;;;;;;;;;;;;;10.55;97.21;101065.25;4194577;28;20015;-71
2023/10/23 07:32:43;;;;;;;;;;;;;;;10.57;97.18;101063.25;4194421;28;20466;-70
2023/10/23 07:34:45;;;;;;;;;;;;;;;10.61;97.23;101064.59;4196427;28;19928;-70
2023/10/23 07:36:47;;;;;;;;;;;;;;;10.64;97.46;101070.53;4195903;28;19924;-70
2023/10/23 07:38:49;;;;;;;;;;;;;;;10.69;97.48;101063.75;4196494;28;20014;-70
2023/10/23 07:40:52;;;;;;;;;;;;;;;10.71;97.38;101070.69;4193191;28;20044;-71
2023/10/23 07:42:53;;;;;;;;;;;;;;;10.74;97.67;101070.34;4195470;28;19984;-71
2023/10/23 07:44:55;;;;;;;;;;;;;;;10.78;97.87;101068.13;4195056;28;20030;-71
2023/10/23 07:46:58;;;;;;;;;;;;;;;10.80;98.14;101069.66;4195814;28;20024;-70
2023/10/23 07:49:00;;;;;;;;;;;;;;;10.83;97.93;101073.88;4194808;28;20011;-71
2023/10/23 07:51:03;;;;;;;;;;;;;;;10.87;98.41;101079.78;4196417;28;20023;-71
2023/10/23 07:53:05;;;;;;;;;;;;;;;10.90;98.32;101082.16;4195702;28;20007;-70
2023/10/23 07:55:08;;;;;;;;;;;;;;;10.91;98.44;101081.13;4195449;28;20016;-71
2023/10/23 07:57:11;;;;;;;;;;;;;;;10.93;98.49;101085.34;4194826;28;19982;-71
2023/10/23 07:59:13;;;;;;;;;;;;;;;10.96;98.85;101081.47;4195764;28;20012;-70
2023/10/23 08:01:15;;;;;;;;;;;;;;;10.99;98.86;101086.53;4194908;28;20031;-70
2023/10/23 08:03:17;;;;;;;;;;;;;;;11.02;99.21;101088.91;4195150;28;20027;-71
2023/10/23 08:05:19;;;;;;;;;;;;;;;11.05;99.27;101084.97;4195189;28;20343;-71
2023/10/23 08:07:21;;;;;;;;;;;;;;;11.06;99.25;101081.28;4195710;28;20392;-71
2023/10/23 08:09:23;;;;;;;;;;;;;;;11.08;99.15;101087.34;4195704;28;20015;-71
2023/10/23 08:11:25;;;;;;;;;;;;;;;11.10;99.26;101091.56;4195358;28;20023;-70
2023/10/23 08:13:28;;;;;;;;;;;;;;;11.12;99.30;101086.00;4195298;28;20046;-71
2023/10/23 08:15:30;;;;;;;;;;;;;;;11.15;99.04;101086.47;4195270;28;20023;-70
2023/10/23 08:17:32;;;;;;;;;;;;;;;11.17;99.40;101094.44;4194636;28;19928;-71
2023/10/23 08:19:34;;;;;;;;;;;;;;;11.20;99.41;101101.34;4195414;28;20006;-71
2023/10/23 08:21:36;;;;;;;;;;;;;;;11.22;99.29;101097.44;4195656;28;20477;-70
2023/10/23 08:23:38;;;;;;;;;;;;;;;11.25;99.53;101098.97;4194922;28;20019;-70
2023/10/23 08:25:41;;;;;;;;;;;;;;;11.27;99.39;101102.34;4195196;28;20549;-70
2023/10/23 08:27:43;;;;;;;;;;;;;;;11.29;99.39;101103.88;4195778;28;20023;-71
2023/10/23 08:29:46;;;;;;;;;;;;;;;11.32;99.21;101099.97;4195238;28;20578;-70
2023/10/23 08:31:47;;;;;;;;;;;;;;;11.35;99.23;101107.75;4192868;28;20481;-70
2023/10/23 08:33:49;;;;;;;;;;;;;;;11.37;98.72;101108.41;4195361;28;20027;-71
2023/10/23 08:35:51;;;;;;;;;;;;;;;11.39;98.82;101102.81;4194516;28;20015;-71
2023/10/23 08:37:55;;;;;;;;;;;;;;;11.39;98.50;101105.53;4195218;28;20043;-71
2023/10/23 08:39:57;;;;;;;;;;;;;;;11.40;98.47;101108.06;4195329;28;20019;-71
2023/10/23 08:41:59;;;;;;;;;;;;;;;11.43;98.51;101112.28;4194568;28;20023;-71
2023/10/23 08:44:01;;;;;;;;;;;;;;;11.44;98.85;101114.81;4186854;28;20027;-70
2023/10/23 08:46:04;;;;;;;;;;;;;;;11.46;99.01;101111.94;4194382;28;20024;-70
2023/10/23 08:48:06;;;;;;;;;;;;;;;11.48;98.97;101110.72;4195407;28;20023;-71
2023/10/23 08:50:09;;;;;;;;;;;;;;;11.48;98.93;101105.31;4195545;28;20019;-70
2023/10/23 08:52:11;;;;;;;;;;;;;;;11.51;99.10;101104.97;4194486;28;20027;-69
2023/10/23 08:54:14;;;;;;;;;;;;;;;11.54;99.13;101106.50;4194835;28;20015;-70
2023/10/23 08:56:16;;;;;;;;;;;;;;;11.56;99.13;101107.16;4195958;28;20011;-70
2023/10/23 08:58:17;;;;;;;;;;;;;;;11.59;99.10;101114.09;4196212;28;19924;-70
2023/10/23 09:00:20;;;;;;;;;;;;;;;11.61;99.02;101112.06;4195011;28;19970;-71
2023/10/23 09:02:24;;;;;;;;;;;;;;;11.64;98.97;101109.00;4193999;28;20387;-70
2023/10/23 09:04:26;;;;;;;;;;;;;;;11.65;98.86;101100.72;4195108;28;20023;-70
2023/10/23 09:06:28;;;;;;;;;;;;;;;11.67;99.22;101104.06;4192714;28;19924;-71
2023/10/23 09:08:31;;;;;;;;;;;;;;;11.70;98.87;101108.28;4186983;28;20007;-70
2023/10/23 09:10:33;;;;;;;;;;;;;;;11.72;98.86;101095.44;4196514;28;20123;-70
2023/10/23 09:12:35;;;;;;;;;;;;;;;11.74;98.47;101104.22;4194083;28;20450;-70
2023/10/23 09:14:37;;;;;;;;;;;;;;;11.77;98.50;101103.88;4194126;28;20016;-69
2023/10/23 09:16:38;;;;;;;;;;;;;;;11.81;98.18;101101.66;4192200;28;20454;-71
2023/10/23 09:18:49;;;;;;;;;;;;;;;11.82;97.91;101096.06;4195300;28;19928;-70
2023/10/23 09:20:51;;;;;;;;;;;;;;;11.84;97.48;101098.59;4195441;28;19924;-70
2023/10/23 09:22:54;;;;;;;;;;;;;;;11.87;97.28;101101.78;4195218;28;20361;-70
2023/10/23 09:24:55;;;;;;;;;;;;;;;11.88;96.95;101100.78;4194659;28;20044;-72
2023/10/23 09:26:57;;;;;;;;;;;;;;;11.92;96.74;101092.31;4194755;28;20023;-70
2023/10/23 09:28:58;;;;;;;;;;;;;;;11.94;96.54;101104.66;4200323;28;20032;-70
2023/10/23 09:31:00;;;;;;;;;;;;;;;11.97;96.27;101103.47;4193934;28;20391;-71
2023/10/23 09:33:02;;;;;;;;;;;;;;;12.01;95.70;101110.22;4194503;28;20027;-71
2023/10/23 09:35:06;;;;;;;;;;;;;;;12.03;94.99;101109.00;4196128;28;20417;-70
2023/10/23 09:37:08;;;;;;;;;;;;;;;12.06;94.66;101107.81;4192489;28;20023;-71
2023/10/23 09:39:10;;;;;;;;;;;;;;;12.08;94.04;101097.66;4189195;28;20386;-71
2023/10/23 09:41:11;;;;;;;;;;;;;;;12.12;93.77;101100.84;4193955;28;20374;-70
2023/10/23 09:43:14;;;;;;;;;;;;;;;12.14;93.38;101101.50;4192479;28;20015;-69
2023/10/23 09:45:16;;;;;;;;;;;;;;;12.18;92.86;101094.72;4192368;28;20012;-69
2023/10/23 09:47:18;;;;;;;;;;;;;;;12.19;92.11;101094.53;4194941;28;20019;-69
2023/10/23 09:49:20;;;;;;;;;;;;;;;12.24;91.45;101102.09;4193727;28;20458;-70
2023/10/23 09:51:24;;;;;;;;;;;;;;;12.26;90.67;101106.34;4195728;28;20015;-71
2023/10/23 09:53:26;;;;;;;;;;;;;;;12.31;90.37;101099.56;4195428;28;20022;-69
2023/10/23 09:55:28;;;;;;;;;;;;;;;12.35;89.90;101108.97;4194973;28;20364;-69
2023/10/23 09:57:34;;;;;;;;;;;;;;;12.37;89.77;101096.13;4195288;28;20023;-70
2023/10/23 09:59:38;;;;;;;;;;;;;;;12.40;89.11;101104.72;4193878;28;19935;-69
2023/10/23 10:01:41;;;;;;;;;;;;;;;12.41;88.64;101095.59;4193603;28;20015;-70
2023/10/23 10:03:43;;;;;;;;;;;;;;;12.44;88.26;101097.06;4193520;28;20023;-70
2023/10/23 10:05:46;;;;;;;;;;;;;;;12.46;87.75;101086.91;4194908;28;20178;-70
2023/10/23 10:07:51;;;;;;;;;;;;;;;12.50;87.28;101092.81;4196255;28;20015;-70
2023/10/23 10:09:53;;;;;;;;;;;;;;;12.54;86.71;101094.09;4177296;28;19998;-70
2023/10/23 10:11:56;;;;;;;;;;;;;;;12.58;86.51;101085.44;4195087;28;20027;-69
2023/10/23 10:13:57;;;;;;;;;;;;;;;12.61;86.27;101087.78;4196363;28;20354;-71
2023/10/23 10:15:59;;;;;;;;;;;;;;;12.67;86.13;101088.09;4195153;28;19986;-69
2023/10/23 10:18:01;;;;;;;;;;;;;;;12.71;85.73;101084.84;4195041;28;20007;-73
2023/10/23 10:20:05;;;;;;;;;;;;;;;12.77;85.22;101092.25;4195136;28;20434;-70
2023/10/23 10:22:10;;;;;;;;;;;;;;;12.86;85.14;101086.75;4195792;28;20019;-70
2023/10/23 10:24:16;;;;;;;;;;;;;;;12.93;84.59;101076.84;4186611;28;19929;-69
2023/10/23 10:26:19;;;;;;;;;;;;;;;13.02;83.82;101081.16;4195137;28;20024;-69
2023/10/23 10:28:23;;;;;;;;;;;;;;;13.11;83.81;101076.50;4198050;28;20507;-70